Portada
METAR-TAF:

METAR-TAF

Aeroports :

Malé, Maldives

latitud: 04-12N, longitud: 073-32E, altitud: 2 m

Observació

L'informe es va fer fa 1 hora i 29 minuts, a les 10:00 UTC
Vent 15 kt del Oest
Temperatura 31°C
Humitat 79%
Pressió 1009 hPa
Visibilitat 10 km o més
Núvols disperses a una alçada de 1800 ft, Cumulus congestus.
Cel cobert a una alçada de 25000 ft

METAR: VRMM 251000Z 26015KT 9999 SCT018TCU OVC250 31/27 Q1009 NOSIG

Hora: 16:29 (11:29 UTC)

Pronòstic

L'informe es va fer fa 6 hores i 29 minuts, a les 05:00 UTC
Pronòstic vàlid del 25 a les 06 UTC al 26 a les 12 UTC
Vent 15 kt del Oest/Nord-Oest
Visibilitat 10 km o més
Escasses núvols a una alçada de 1800 ft, Cumulus congestus.
Temporalment
l' 25 a les 06 UTC al 25 a les 12 UTC
Escasses núvols a una alçada de 1800 ft, Cumulonimbus.

TAF: VRMM 250500Z 2506/2612 29015KT 9999 FEW018TCU TEMPO 2506/2512 FEW018CB

Observacions i pronòstics meteorològics de més de 4000 aeroports (METAR i TAF).

Les estacions disponibles són els punts grocs i vermells al mapa.

Posi el ratolí al punt desitjat per veure el nom de l'estació.

Feu clic per veure les observacions i els pronòstics meteorològics.

Per canviar el mapa: feu clic els botons verds amb una creu de color negre per apropar; al botó verd amb un guió per allunyar la imatge; o en les fletxes verdes per a mapes adjacents.


METAR-TAF: